Time;durP1;ratioP1;P1;durP2;ratioP2;P2;SDS_P1;SDS_P2;PMS_P1;PMS_P2;Temp;Humidity;BMP_temperature;BMP_pressure;BME280_temperature;BME280_humidity;BME280_pressure;Samples;Min_cycle;Max_cycle;Signal;HPM_P1;HPM_P2
2022/05/04 00:00:55;;;;;;;16.93;5.20;;;11.20;99.90;;;;;;5224030;28;20228;-51
2022/05/04 00:03:25;;;;;;;5.87;5.20;;;11.20;99.90;;;;;;5218382;28;20191;-50
2022/05/04 00:05:56;;;;;;;5.00;4.70;;;11.20;99.90;;;;;;5219614;28;20621;-51
2022/05/04 00:08:26;;;;;;;6.03;4.60;;;11.10;99.90;;;;;;5223435;28;20706;-50
2022/05/04 00:10:59;;;;;;;10.07;5.10;;;11.10;99.90;;;;;;5225811;28;20627;-51
2022/05/04 00:13:31;;;;;;;7.10;5.07;;;11.00;99.90;;;;;;5227666;28;20175;-51
2022/05/04 00:16:02;;;;;;;8.13;4.70;;;11.00;99.90;;;;;;5227465;28;20477;-52
2022/05/04 00:18:33;;;;;;;5.40;4.90;;;10.90;99.90;;;;;;5223994;28;20888;-52
2022/05/04 00:21:03;;;;;;;5.17;4.60;;;10.90;99.90;;;;;;5221951;28;20183;-53
2022/05/04 00:23:34;;;;;;;11.70;5.10;;;10.90;99.90;;;;;;5227966;28;20471;-50
2022/05/04 00:26:04;;;;;;;4.47;4.10;;;10.90;99.90;;;;;;5228661;28;20203;-51
2022/05/04 00:28:35;;;;;;;3.90;3.70;;;10.90;99.90;;;;;;5227505;28;20202;-50
2022/05/04 00:31:05;;;;;;;5.67;5.13;;;10.80;99.90;;;;;;5222442;28;20215;-51
2022/05/04 00:33:36;;;;;;;4.53;4.20;;;10.80;99.90;;;;;;5228610;28;20542;-49
2022/05/04 00:36:07;;;;;;;7.87;4.87;;;10.80;99.90;;;;;;5228014;28;23434;-50
2022/05/04 00:38:37;;;;;;;6.27;4.50;;;10.80;99.90;;;;;;5238665;28;20207;-51
2022/05/04 00:41:08;;;;;;;5.93;5.20;;;10.70;99.90;;;;;;5226661;28;20214;-51
2022/05/04 00:43:38;;;;;;;4.77;4.37;;;10.70;99.90;;;;;;5228413;28;20658;-51
2022/05/04 00:46:09;;;;;;;7.33;4.80;;;10.70;99.90;;;;;;5227963;28;20559;-51
2022/05/04 00:48:39;;;;;;;5.00;4.60;;;10.70;99.90;;;;;;5237857;28;20201;-51
2022/05/04 00:51:10;;;;;;;7.13;5.03;;;10.80;99.90;;;;;;5227774;28;20175;-51
2022/05/04 00:53:42;;;;;;;8.23;4.70;;;10.80;99.90;;;;;;5228226;28;20221;-50
2022/05/04 00:56:13;;;;;;;6.80;5.23;;;10.70;99.90;;;;;;5224595;28;20179;-51
2022/05/04 00:58:55;;;;;;;4.20;3.90;;;10.70;99.90;;;;;;5226301;28;20456;-51
2022/05/04 01:01:30;;;;;;;5.53;4.80;;;10.70;99.90;;;;;;5223970;28;20596;-50
2022/05/04 01:04:01;;;;;;;5.17;4.77;;;10.60;99.90;;;;;;5228002;28;20946;-51
2022/05/04 01:06:33;;;;;;;5.07;4.57;;;10.50;99.90;;;;;;5224080;28;20472;-50
2022/05/04 01:09:04;;;;;;;10.53;4.93;;;10.50;99.90;;;;;;5209627;28;20572;-52
2022/05/04 01:11:35;;;;;;;5.03;4.60;;;10.50;99.90;;;;;;5226949;28;20425;-51
2022/05/04 01:14:08;;;;;;;5.40;5.00;;;10.40;99.90;;;;;;5225513;28;20503;-50
2022/05/04 01:16:42;;;;;;;6.37;5.80;;;10.40;99.90;;;;;;5226671;28;20183;-51
2022/05/04 01:19:13;;;;;;;22.57;6.53;;;10.40;99.90;;;;;;5226299;28;20928;-52
2022/05/04 01:21:44;;;;;;;5.60;4.97;;;10.40;99.90;;;;;;5225246;28;20448;-51
2022/05/04 01:24:14;;;;;;;6.63;5.40;;;10.30;99.90;;;;;;5225498;28;20183;-51
2022/05/04 01:26:45;;;;;;;8.87;5.50;;;10.30;99.90;;;;;;5227312;28;20467;-51
2022/05/04 01:29:15;;;;;;;8.10;5.00;;;10.30;99.90;;;;;;5227229;28;20198;-50
2022/05/04 01:31:46;;;;;;;5.43;4.93;;;10.30;99.90;;;;;;5224993;28;20232;-50
2022/05/04 01:34:17;;;;;;;6.67;5.53;;;10.20;99.90;;;;;;5226497;28;20187;-51
2022/05/04 01:36:47;;;;;;;6.20;5.43;;;10.20;99.90;;;;;;5226352;28;20190;-49
2022/05/04 01:39:18;;;;;;;6.27;5.70;;;10.10;99.90;;;;;;5226290;28;20467;-51
2022/05/04 01:42:05;;;;;;;6.30;5.70;;;10.10;99.90;;;;;;5226789;28;20209;-50
2022/05/04 01:44:36;;;;;;;6.60;5.30;;;10.10;99.90;;;;;;5223844;28;20183;-51
2022/05/04 01:47:07;;;;;;;8.50;6.00;;;10.00;99.90;;;;;;5224669;28;20479;-50
2022/05/04 01:49:39;;;;;;;6.77;5.57;;;10.00;99.90;;;;;;5224756;28;20218;-50
2022/05/04 01:52:09;;;;;;;5.90;5.37;;;10.00;99.90;;;;;;5221532;28;21033;-51
2022/05/04 01:54:40;;;;;;;8.60;5.67;;;10.00;99.90;;;;;;5225126;28;20509;-53
2022/05/04 01:57:10;;;;;;;12.53;6.40;;;9.90;99.90;;;;;;5227337;28;20209;-51
2022/05/04 01:59:41;;;;;;;7.23;6.10;;;9.90;99.90;;;;;;5239752;28;20557;-50
2022/05/04 02:02:11;;;;;;;6.67;6.07;;;9.90;99.90;;;;;;5223180;28;20198;-53
2022/05/04 02:04:42;;;;;;;6.90;6.20;;;9.80;99.90;;;;;;5226500;28;20183;-50
2022/05/04 02:07:12;;;;;;;7.70;6.33;;;9.80;99.90;;;;;;5221450;28;20191;-54
2022/05/04 02:09:43;;;;;;;7.10;6.23;;;9.80;99.90;;;;;;5225513;28;20207;-50
2022/05/04 02:12:14;;;;;;;7.53;6.50;;;9.80;99.90;;;;;;5224117;28;20270;-49
2022/05/04 02:14:44;;;;;;;8.93;6.23;;;9.70;99.90;;;;;;5207722;28;20592;-50
2022/05/04 02:17:15;;;;;;;10.50;7.23;;;9.70;99.90;;;;;;5223204;28;20175;-51
2022/05/04 02:19:45;;;;;;;12.47;8.00;;;9.70;99.90;;;;;;5224787;28;20576;-51
2022/05/04 02:22:16;;;;;;;9.73;6.10;;;9.70;99.90;;;;;;5228726;28;20560;-52
2022/05/04 02:24:46;;;;;;;9.10;7.30;;;9.60;99.90;;;;;;5222705;28;20638;-51
2022/05/04 02:27:17;;;;;;;9.20;7.10;;;9.60;99.90;;;;;;5227679;28;20220;-51
2022/05/04 02:29:48;;;;;;;6.73;6.13;;;9.60;99.90;;;;;;5223406;28;20248;-50
2022/05/04 02:32:18;;;;;;;10.57;6.70;;;9.50;99.90;;;;;;5223699;28;20179;-51
2022/05/04 02:40:27;;;;;;;8.40;7.17;;;9.40;99.90;;;;;;5219797;28;20482;-51
2022/05/04 02:42:58;;;;;;;6.90;6.20;;;9.40;99.90;;;;;;5223516;28;20433;-52
2022/05/04 02:45:28;;;;;;;8.17;6.13;;;9.40;99.90;;;;;;5225223;28;20210;-50
2022/05/04 02:47:59;;;;;;;9.87;6.10;;;9.30;99.90;;;;;;5225656;28;20225;-51
2022/05/04 02:50:29;;;;;;;8.10;6.80;;;9.30;99.90;;;;;;5222746;28;20183;-50
2022/05/04 02:53:00;;;;;;;7.97;6.80;;;9.30;99.90;;;;;;5222966;28;20214;-50
2022/05/04 02:55:31;;;;;;;11.03;6.77;;;9.30;99.90;;;;;;5222080;28;20191;-51
2022/05/04 02:58:01;;;;;;;12.17;7.30;;;9.20;99.90;;;;;;5225741;28;20236;-52
2022/05/04 03:00:32;;;;;;;7.93;6.90;;;9.20;99.90;;;;;;5223783;28;20704;-52
2022/05/04 03:03:02;;;;;;;12.53;7.07;;;9.20;99.90;;;;;;5224540;28;20226;-50
2022/05/04 03:05:33;;;;;;;9.77;6.53;;;9.20;99.90;;;;;;5223473;28;20203;-51
2022/05/04 03:08:04;;;;;;;7.00;6.40;;;9.20;99.90;;;;;;5201596;28;20217;-51
2022/05/04 03:11:54;;;;;;;6.67;6.00;;;9.10;99.90;;;;;;5240392;28;20221;-51
2022/05/04 03:13:25;;;;;;;12.83;8.20;;;9.10;99.90;;;;;;5223754;28;20184;-52
2022/05/04 03:15:55;;;;;;;7.90;7.10;;;9.10;99.90;;;;;;5221111;28;20438;-52
2022/05/04 03:18:26;;;;;;;13.33;6.10;;;9.10;99.90;;;;;;5237648;23;20290;-52
2022/05/04 03:20:56;;;;;;;11.10;7.37;;;9.10;99.90;;;;;;5218184;28;20277;-54
2022/05/04 03:23:27;;;;;;;11.07;8.30;;;9.10;99.90;;;;;;5225320;28;20171;-55
2022/05/04 03:25:57;;;;;;;9.80;6.43;;;9.10;99.90;;;;;;5222773;28;20294;-54
2022/05/04 03:28:28;;;;;;;8.97;6.40;;;9.10;99.90;;;;;;5227290;28;20231;-54
2022/05/04 03:30:58;;;;;;;8.53;7.10;;;9.10;99.90;;;;;;5236669;28;20532;-54
2022/05/04 03:33:29;;;;;;;7.67;6.07;;;9.10;99.90;;;;;;5239565;28;20265;-56
2022/05/04 03:35:59;;;;;;;8.50;7.57;;;9.10;99.90;;;;;;5242316;28;20213;-54
2022/05/04 03:38:30;;;;;;;16.17;7.13;;;9.10;99.90;;;;;;5234437;28;20232;-54
2022/05/04 03:41:00;;;;;;;8.50;6.63;;;9.20;99.90;;;;;;5229978;28;20281;-53
2022/05/04 03:43:31;;;;;;;7.57;5.90;;;9.20;99.90;;;;;;5235817;28;20423;-53
2022/05/04 03:46:17;;;;;;;7.33;6.20;;;9.30;99.90;;;;;;5246081;28;20741;-53
2022/05/04 03:48:51;;;;;;;9.47;5.90;;;9.30;99.90;;;;;;5243489;28;20252;-52
2022/05/04 03:51:22;;;;;;;6.17;5.60;;;9.30;99.90;;;;;;5240423;28;20475;-55
2022/05/04 03:53:53;;;;;;;7.33;6.50;;;9.30;99.90;;;;;;5246136;28;20478;-53
2022/05/04 03:56:24;;;;;;;6.27;5.67;;;9.40;99.90;;;;;;5248345;28;20521;-56
2022/05/04 03:58:54;;;;;;;9.63;7.13;;;9.50;99.90;;;;;;5246488;28;20464;-53
2022/05/04 04:01:25;;;;;;;6.67;6.10;;;9.50;99.90;;;;;;5241348;28;20195;-54
2022/05/04 04:03:55;;;;;;;8.07;7.00;;;9.60;99.90;;;;;;5246441;28;20189;-53
2022/05/04 04:06:26;;;;;;;6.23;5.40;;;9.70;99.90;;;;;;5247502;28;20205;-53
2022/05/04 04:08:56;;;;;;;8.00;6.30;;;9.80;99.90;;;;;;5243684;28;20197;-54
2022/05/04 04:11:27;;;;;;;5.83;4.83;;;9.80;99.90;;;;;;5241453;28;20178;-54
2022/05/04 04:13:59;;;;;;;6.97;5.80;;;9.90;99.90;;;;;;5241946;28;20276;-54
2022/05/04 04:16:29;;;;;;;11.03;6.53;;;10.00;99.90;;;;;;5242126;28;20654;-53
2022/05/04 04:19:00;;;;;;;9.30;6.70;;;10.10;99.90;;;;;;5243492;28;20464;-56
2022/05/04 04:24:21;;;;;;;8.20;7.03;;;10.40;99.90;;;;;;5240383;28;20234;-53
2022/05/04 04:26:52;;;;;;;9.13;6.77;;;10.50;99.90;;;;;;5230813;28;20469;-53
2022/05/04 04:29:22;;;;;;;7.47;6.60;;;10.60;99.90;;;;;;5255472;28;20495;-54
2022/05/04 04:31:53;;;;;;;16.67;7.13;;;10.70;99.90;;;;;;5237906;28;20171;-56
2022/05/04 04:34:23;;;;;;;7.10;6.40;;;10.80;99.90;;;;;;5235408;28;20214;-53
2022/05/04 04:36:54;;;;;;;9.40;7.17;;;10.90;99.90;;;;;;5239990;28;20224;-53
2022/05/04 04:39:25;;;;;;;9.80;8.10;;;11.10;99.90;;;;;;5243124;28;20252;-54
2022/05/04 04:41:55;;;;;;;7.43;6.30;;;11.30;99.90;;;;;;5243437;28;20783;-55
2022/05/04 04:44:26;;;;;;;6.63;6.03;;;11.60;99.90;;;;;;5241500;28;20211;-55
2022/05/04 04:46:56;;;;;;;8.23;6.17;;;11.90;99.90;;;;;;5240952;28;20685;-53
2022/05/04 04:49:27;;;;;;;6.73;6.10;;;12.30;99.90;;;;;;5235434;28;20681;-54
2022/05/04 04:51:57;;;;;;;6.03;5.50;;;12.70;99.90;;;;;;5236940;28;20250;-54
2022/05/04 04:54:28;;;;;;;6.47;5.40;;;13.00;99.90;;;;;;5240811;28;20265;-54
2022/05/04 04:56:58;;;;;;;6.63;5.27;;;13.20;99.90;;;;;;5241269;28;20204;-53
2022/05/04 04:59:29;;;;;;;10.83;7.73;;;13.30;99.90;;;;;;5239466;28;20237;-54
2022/05/04 05:01:59;;;;;;;7.53;6.80;;;13.30;99.90;;;;;;5236760;28;20193;-53
2022/05/04 05:04:30;;;;;;;12.63;7.33;;;13.10;99.90;;;;;;5236679;28;20224;-54
2022/05/04 05:07:00;;;;;;;13.53;6.03;;;13.00;99.90;;;;;;5238476;28;20300;-54
2022/05/04 05:09:31;;;;;;;12.27;6.83;;;13.00;99.90;;;;;;5241594;28;20210;-53
2022/05/04 05:12:01;;;;;;;7.53;6.83;;;12.80;99.90;;;;;;5243622;28;20514;-54
2022/05/04 05:17:21;;;;;;;7.63;6.93;;;12.80;99.90;;;;;;5237830;28;20190;-55
2022/05/04 05:19:51;;;;;;;7.07;6.23;;;12.80;99.90;;;;;;5237559;28;20819;-56
2022/05/04 05:22:22;;;;;;;8.13;6.87;;;12.80;99.90;;;;;;5245770;28;20213;-54
2022/05/04 05:24:52;;;;;;;10.33;6.97;;;12.90;99.90;;;;;;5238153;28;20197;-54
2022/05/04 05:27:23;;;;;;;7.73;6.77;;;12.90;99.90;;;;;;5232023;28;20179;-53
2022/05/04 05:29:53;;;;;;;23.73;7.70;;;13.00;99.90;;;;;;5242191;28;20209;-53
2022/05/04 05:32:24;;;;;;;10.83;8.33;;;13.00;99.90;;;;;;5244056;28;20587;-55
2022/05/04 05:34:55;;;;;;;10.70;8.23;;;13.20;99.90;;;;;;5244288;28;20197;-55
2022/05/04 05:37:25;;;;;;;9.40;7.70;;;13.30;99.90;;;;;;5237866;28;20186;-55
2022/05/04 05:39:56;;;;;;;7.50;6.73;;;13.50;99.90;;;;;;5239603;28;20321;-54
2022/05/04 05:42:28;;;;;;;7.20;5.97;;;13.80;99.90;;;;;;5233260;28;20560;-54
2022/05/04 05:44:59;;;;;;;14.07;7.73;;;14.00;99.90;;;;;;5233744;28;20199;-55
2022/05/04 05:47:29;;;;;;;10.00;7.37;;;14.30;99.90;;;;;;5237960;28;21177;-54
2022/05/04 05:50:00;;;;;;;8.77;7.13;;;14.40;99.90;;;;;;5234683;28;20209;-56
2022/05/04 05:52:30;;;;;;;9.47;7.80;;;14.60;99.90;;;;;;5241017;28;20224;-53
2022/05/04 05:55:01;;;;;;;7.67;6.87;;;14.60;99.90;;;;;;5242233;28;20202;-52
2022/05/04 05:57:33;;;;;;;12.03;8.30;;;14.70;99.90;;;;;;5239468;28;20190;-54
2022/05/04 06:00:05;;;;;;;14.63;7.43;;;15.00;99.90;;;;;;5238845;28;20232;-54
2022/05/04 06:02:35;;;;;;;8.73;7.70;;;15.30;99.90;;;;;;5253742;28;20448;-54
2022/05/04 06:05:06;;;;;;;10.97;7.13;;;15.70;98.10;;;;;;5245207;28;20468;-55
2022/05/04 06:07:37;;;;;;;15.47;7.70;;;16.60;95.40;;;;;;5233417;28;20182;-55
2022/05/04 06:10:08;;;;;;;10.53;7.10;;;16.70;90.70;;;;;;5235261;28;20460;-55
2022/05/04 06:12:38;;;;;;;9.47;7.60;;;16.70;90.40;;;;;;5240003;28;20186;-55
2022/05/04 06:15:10;;;;;;;20.73;7.70;;;16.60;90.10;;;;;;5238894;28;20651;-55
2022/05/04 06:17:41;;;;;;;6.73;6.13;;;16.80;87.90;;;;;;5225942;28;20190;-56
2022/05/04 06:20:12;;;;;;;9.20;6.53;;;17.50;82.40;;;;;;5240676;28;20536;-57
2022/05/04 06:22:42;;;;;;;12.00;7.10;;;18.40;75.50;;;;;;5240962;28;20444;-58
2022/05/04 06:25:13;;;;;;;9.20;8.00;;;19.40;68.50;;;;;;5238180;28;20190;-55
2022/05/04 06:27:43;;;;;;;9.67;6.93;;;19.70;61.70;;;;;;5235235;28;20303;-56
2022/05/04 06:35:53;;;;;;;12.73;7.27;;;18.40;62.00;;;;;;5231059;28;20439;-56
2022/05/04 06:38:24;;;;;;;13.27;7.33;;;18.10;62.40;;;;;;5236669;28;20431;-56
2022/05/04 06:40:54;;;;;;;9.50;7.57;;;18.00;62.50;;;;;;5235257;28;20243;-56
2022/05/04 06:43:25;;;;;;;7.43;6.67;;;17.90;62.40;;;;;;5240152;28;20270;-56
2022/05/04 06:45:55;;;;;;;10.27;8.00;;;17.60;62.40;;;;;;5235519;28;20712;-55
2022/05/04 06:48:26;;;;;;;7.03;6.43;;;17.50;64.10;;;;;;5237644;28;20178;-56
2022/05/04 06:50:57;;;;;;;8.30;6.67;;;17.50;64.00;;;;;;5240367;28;20203;-55
2022/05/04 06:53:27;;;;;;;8.53;6.33;;;17.40;63.60;;;;;;5238300;28;20194;-54
2022/05/04 06:55:58;;;;;;;6.47;5.83;;;17.30;64.10;;;;;;5239485;28;20194;-57
2022/05/04 06:58:29;;;;;;;12.70;7.87;;;17.30;64.00;;;;;;5233179;28;20294;-55
2022/05/04 07:00:59;;;;;;;8.73;6.60;;;17.30;64.40;;;;;;5233458;28;20182;-54
2022/05/04 07:03:30;;;;;;;7.73;6.90;;;17.40;64.80;;;;;;5242910;28;20194;-56
2022/05/04 07:06:01;;;;;;;14.73;8.10;;;17.30;63.80;;;;;;5237916;28;20244;-55
2022/05/04 07:08:31;;;;;;;10.50;7.60;;;17.40;64.40;;;;;;5234935;28;20460;-55
2022/05/04 07:11:02;;;;;;;9.10;7.40;;;17.40;63.50;;;;;;5242879;28;20265;-54
2022/05/04 07:13:32;;;;;;;11.73;6.27;;;17.50;63.70;;;;;;5256462;28;20186;-55
2022/05/04 07:16:03;;;;;;;9.97;6.80;;;17.80;63.40;;;;;;5238528;28;20183;-56
2022/05/04 07:18:34;;;;;;;14.73;6.80;;;18.20;62.40;;;;;;5238107;28;20194;-54
2022/05/04 07:21:04;;;;;;;11.93;6.73;;;18.60;59.90;;;;;;5238020;28;20178;-55
2022/05/04 07:23:35;;;;;;;12.30;7.47;;;18.70;58.20;;;;;;5230304;28;20205;-55
2022/05/04 07:26:05;;;;;;;6.30;5.70;;;18.50;57.40;;;;;;5236170;28;20233;-55
2022/05/04 07:28:36;;;;;;;10.63;5.90;;;18.40;58.30;;;;;;5234885;28;20579;-56
2022/05/04 07:31:07;;;;;;;8.23;7.33;;;18.70;58.30;;;;;;5237224;28;20232;-56
2022/05/04 07:33:38;;;;;;;9.90;7.63;;;19.10;57.10;;;;;;5238709;28;20179;-56
2022/05/04 07:36:09;;;;;;;14.37;6.93;;;19.20;56.30;;;;;;5235358;28;20239;-56
2022/05/04 07:38:39;;;;;;;10.83;7.50;;;19.50;56.50;;;;;;5240364;28;20198;-56
2022/05/04 07:43:59;;;;;;;9.00;7.07;;;19.70;54.20;;;;;;5236878;28;20182;-55
2022/05/04 07:46:30;;;;;;;9.37;6.50;;;19.70;53.40;;;;;;5235058;28;20467;-56
2022/05/04 07:49:02;;;;;;;9.73;6.70;;;21.30;53.30;;;;;;5242202;28;20974;-55
2022/05/04 07:51:32;;;;;;;8.73;6.67;;;23.60;46.10;;;;;;5242656;28;20186;-54
2022/05/04 07:54:03;;;;;;;11.70;7.70;;;25.70;42.20;;;;;;5243903;28;20786;-56
2022/05/04 07:56:34;;;;;;;6.90;6.20;;;27.00;36.80;;;;;;5240987;28;20666;-56
2022/05/04 07:59:04;;;;;;;6.93;5.40;;;28.20;34.50;;;;;;5241766;28;20218;-55
2022/05/04 08:04:24;;;;;;;9.87;6.27;;;30.10;31.80;;;;;;5248926;28;20195;-55
2022/05/04 08:06:54;;;;;;;7.67;6.97;;;31.10;30.00;;;;;;5244665;28;20468;-55
2022/05/04 08:09:25;;;;;;;11.63;7.13;;;31.00;29.10;;;;;;5244938;28;20246;-57
2022/05/04 08:11:56;;;;;;;8.83;6.40;;;30.30;29.50;;;;;;5238870;28;20192;-56
2022/05/04 08:14:26;;;;;;;10.73;6.20;;;29.90;30.20;;;;;;5243928;28;20214;-57
2022/05/04 08:16:57;;;;;;;7.67;5.93;;;29.50;30.10;;;;;;5246308;28;20190;-55
2022/05/04 08:19:27;;;;;;;8.10;5.83;;;28.80;30.50;;;;;;5237833;28;20234;-56
2022/05/04 08:21:58;;;;;;;6.77;6.10;;;28.70;31.10;;;;;;5237576;28;20209;-56
2022/05/04 08:24:28;;;;;;;11.20;6.47;;;29.50;29.60;;;;;;5239093;28;20554;-55
2022/05/04 08:26:59;;;;;;;5.03;4.63;;;29.90;29.70;;;;;;5242176;28;20325;-55
2022/05/04 08:29:29;;;;;;;14.77;6.10;;;30.40;29.30;;;;;;5240389;28;20199;-58
2022/05/04 08:32:00;;;;;;;17.13;6.97;;;30.10;28.50;;;;;;5243202;28;20238;-56
2022/05/04 08:34:31;;;;;;;10.07;7.73;;;29.20;29.90;;;;;;5245419;28;20210;-58
2022/05/04 08:37:02;;;;;;;59.33;9.60;;;27.90;30.30;;;;;;5245876;28;20528;-56
2022/05/04 08:39:32;;;;;;;8.47;5.70;;;27.00;32.50;;;;;;5244672;28;20221;-57
2022/05/04 08:42:03;;;;;;;10.40;6.40;;;25.90;33.90;;;;;;5245075;28;20786;-55
2022/05/04 08:44:34;;;;;;;25.07;7.23;;;25.80;34.80;;;;;;5246706;28;20212;-57
2022/05/04 08:47:12;;;;;;;7.73;6.70;;;25.70;34.80;;;;;;5244503;28;20582;-56
2022/05/04 08:49:44;;;;;;;6.03;5.43;;;25.70;35.40;;;;;;5244210;28;20263;-56
2022/05/04 08:52:15;;;;;;;8.33;5.83;;;25.90;35.20;;;;;;5239813;28;20545;-55
2022/05/04 08:54:48;;;;;;;29.10;6.97;;;25.70;35.10;;;;;;5243748;28;20578;-56
2022/05/04 08:57:19;;;;;;;7.33;6.63;;;25.30;35.60;;;;;;5248205;28;20174;-56
2022/05/04 08:59:50;;;;;;;11.70;7.00;;;24.60;35.90;;;;;;5245428;28;20838;-54
2022/05/04 09:02:20;;;;;;;10.27;6.40;;;23.00;37.40;;;;;;5242186;28;20192;-55
2022/05/04 09:04:51;;;;;;;11.27;6.20;;;21.70;39.60;;;;;;5241597;28;20179;-56
2022/05/04 09:07:26;;;;;;;9.93;6.20;;;21.20;40.40;;;;;;5244403;28;20790;-55
2022/05/04 09:09:56;;;;;;;8.77;6.13;;;21.10;40.90;;;;;;5246098;28;20767;-55
2022/05/04 09:12:33;;;;;;;9.40;5.47;;;21.20;40.60;;;;;;5244317;28;20526;-57
2022/05/04 09:15:15;;;;;;;5.57;5.03;;;21.20;40.30;;;;;;5244545;28;20190;-55
2022/05/04 09:17:47;;;;;;;9.23;5.77;;;20.80;41.00;;;;;;5241422;28;20512;-57
2022/05/04 09:23:09;;;;;;;8.50;6.20;;;20.00;42.60;;;;;;5220565;28;20471;-54
2022/05/04 09:25:40;;;;;;;7.43;6.67;;;19.80;43.20;;;;;;5220997;28;20460;-55
2022/05/04 09:28:13;;;;;;;8.30;5.90;;;19.70;43.60;;;;;;5223096;28;20429;-55
2022/05/04 09:30:45;;;;;;;15.13;6.30;;;19.80;43.40;;;;;;5205499;28;20226;-54
2022/05/04 09:33:18;;;;;;;5.73;5.20;;;20.00;43.30;;;;;;5205315;28;20782;-54
2022/05/04 09:35:50;;;;;;;4.77;4.30;;;20.20;42.90;;;;;;5210932;28;20547;-55
2022/05/04 09:46:53;;;;;;;5.70;5.00;;;21.40;40.00;;;;;;5196579;28;20826;-52
2022/05/04 09:49:31;;;;;;;13.93;6.47;;;21.40;40.00;;;;;;5197288;28;20446;-53
2022/05/04 09:52:04;;;;;;;10.50;5.30;;;21.60;40.50;;;;;;5198442;28;21025;-53
2022/05/04 09:54:34;;;;;;;4.90;4.60;;;21.70;40.60;;;;;;5199886;28;20449;-53
2022/05/04 09:57:06;;;;;;;12.27;4.47;;;22.10;39.80;;;;;;5212226;28;20454;-55
2022/05/04 09:59:36;;;;;;;4.80;4.10;;;22.10;40.10;;;;;;5197625;28;20652;-52
2022/05/04 10:02:09;;;;;;;11.93;5.80;;;22.00;40.00;;;;;;5199611;28;20442;-55
2022/05/04 10:04:39;;;;;;;5.77;5.23;;;22.00;40.30;;;;;;5198008;28;20180;-55
2022/05/04 10:07:11;;;;;;;8.23;4.50;;;21.90;40.20;;;;;;5199815;28;20590;-53
2022/05/04 10:09:41;;;;;;;5.33;4.77;;;21.90;39.20;;;;;;5201082;28;20199;-55
2022/05/04 10:12:13;;;;;;;3.17;2.97;;;21.50;39.80;;;;;;5201694;28;20427;-54
2022/05/04 10:14:45;;;;;;;8.77;4.77;;;21.60;40.40;;;;;;5204100;28;20184;-55
2022/05/04 10:17:24;;;;;;;14.83;5.43;;;21.90;40.40;;;;;;5199459;28;20488;-54
2022/05/04 10:20:08;;;;;;;5.57;5.07;;;22.30;40.10;;;;;;5201967;28;20470;-55
2022/05/04 10:22:49;;;;;;;6.57;5.23;;;22.00;39.90;;;;;;5196763;28;21010;-52
2022/05/04 10:25:21;;;;;;;9.70;5.40;;;22.10;39.80;;;;;;5195153;28;20497;-49
2022/05/04 10:28:06;;;;;;;5.30;4.77;;;22.00;40.00;;;;;;5203520;28;20533;-55
2022/05/04 10:30:56;;;;;;;9.43;6.67;;;22.30;39.50;;;;;;5196317;28;20988;-54
2022/05/04 10:33:35;;;;;;;10.00;5.60;;;22.50;39.50;;;;;;5193251;28;20484;-53
2022/05/04 10:36:20;;;;;;;7.00;5.00;;;22.20;38.70;;;;;;5198870;28;20500;-53
2022/05/04 10:38:55;;;;;;;12.23;5.30;;;21.50;39.80;;;;;;5203040;28;20553;-56
2022/05/04 10:41:39;;;;;;;14.00;4.40;;;21.40;40.30;;;;;;5205903;28;20532;-55
2022/05/04 10:44:10;;;;;;;4.60;4.20;;;21.60;40.50;;;;;;5201846;28;20434;-54
2022/05/04 10:46:45;;;;;;;4.67;4.27;;;21.70;40.20;;;;;;5206516;28;20694;-51
2022/05/04 10:49:16;;;;;;;11.27;6.20;;;21.80;40.40;;;;;;5205633;28;20468;-50
2022/05/04 10:51:47;;;;;;;10.87;5.53;;;21.90;40.50;;;;;;5199960;28;20895;-50
2022/05/04 10:54:19;;;;;;;4.93;4.63;;;21.90;40.00;;;;;;5204593;28;20462;-52
2022/05/04 10:56:51;;;;;;;4.93;4.43;;;21.90;39.60;;;;;;5202962;28;20190;-50
2022/05/04 10:59:42;;;;;;;4.73;4.07;;;21.60;39.80;;;;;;5216186;28;20823;-51
2022/05/04 11:02:17;;;;;;;4.23;3.87;;;21.30;40.10;;;;;;5199875;28;20500;-51
2022/05/04 11:04:52;;;;;;;6.87;4.60;;;21.00;40.60;;;;;;5207205;28;20464;-49
2022/05/04 11:07:31;;;;;;;5.20;3.97;;;20.70;40.50;;;;;;5202881;28;20428;-49
2022/05/04 11:10:01;;;;;;;7.33;4.20;;;20.40;41.40;;;;;;5199209;28;21052;-53
2022/05/04 11:12:32;;;;;;;4.23;3.93;;;20.50;42.20;;;;;;5197635;28;20526;-53
2022/05/04 11:15:04;;;;;;;7.23;5.40;;;20.40;42.20;;;;;;5202519;28;20184;-53
2022/05/04 11:17:35;;;;;;;16.43;7.60;;;20.40;42.50;;;;;;5199756;28;20249;-53
2022/05/04 11:20:06;;;;;;;8.30;5.67;;;20.50;42.20;;;;;;5202028;28;20856;-54
2022/05/04 11:22:38;;;;;;;12.63;5.47;;;20.70;42.30;;;;;;5200178;28;20267;-54
2022/05/04 11:25:10;;;;;;;8.23;5.50;;;20.70;41.60;;;;;;5198172;28;20434;-56
2022/05/04 11:27:41;;;;;;;4.90;4.40;;;21.00;41.80;;;;;;5198913;28;20572;-54
2022/05/04 11:30:13;;;;;;;9.23;5.13;;;21.50;41.70;;;;;;5199266;28;20879;-51
2022/05/04 11:32:43;;;;;;;4.43;4.13;;;21.90;40.10;;;;;;5198280;28;20430;-53
2022/05/04 11:35:14;;;;;;;4.00;3.77;;;21.80;40.70;;;;;;5198198;28;20449;-51
2022/05/04 11:37:45;;;;;;;8.23;3.90;;;21.90;40.90;;;;;;5202382;28;20225;-56
2022/05/04 11:40:17;;;;;;;6.00;4.33;;;21.90;39.40;;;;;;5195439;28;20207;-53
2022/05/04 11:42:48;;;;;;;4.50;4.13;;;22.00;39.60;;;;;;5201050;28;20711;-55
2022/05/04 11:45:20;;;;;;;5.80;5.10;;;21.80;40.00;;;;;;5209913;28;20468;-53
2022/05/04 11:47:51;;;;;;;8.03;4.10;;;21.90;39.70;;;;;;5218287;28;22240;-57
2022/05/04 11:50:23;;;;;;;4.03;3.73;;;21.80;39.60;;;;;;5201316;28;20538;-55
2022/05/04 11:52:54;;;;;;;5.17;4.07;;;21.90;39.50;;;;;;5200198;28;20956;-52
2022/05/04 11:55:24;;;;;;;4.20;3.90;;;21.80;39.90;;;;;;5200481;28;20442;-54
2022/05/04 11:57:58;;;;;;;3.57;3.37;;;21.90;40.00;;;;;;5200695;28;20188;-56
2022/05/04 12:00:29;;;;;;;4.10;3.90;;;22.50;39.80;;;;;;5191775;28;20202;-52
2022/05/04 12:02:59;;;;;;;4.40;4.10;;;22.60;39.30;;;;;;5200117;28;20437;-54
2022/05/04 12:05:31;;;;;;;7.50;4.40;;;22.80;39.40;;;;;;5200871;28;20234;-56
2022/05/04 12:08:04;;;;;;;11.60;5.83;;;22.90;38.90;;;;;;5206359;28;20266;-55
2022/05/04 12:10:35;;;;;;;13.77;4.83;;;22.80;39.20;;;;;;5201688;28;20573;-56
2022/05/04 12:13:06;;;;;;;8.80;4.77;;;22.90;39.20;;;;;;5199207;28;20434;-55
2022/05/04 12:15:37;;;;;;;5.13;4.23;;;23.20;38.00;;;;;;5213348;28;20187;-57
2022/05/04 12:18:09;;;;;;;11.93;4.70;;;23.00;37.80;;;;;;5218307;28;20230;-53
2022/05/04 12:20:43;;;;;;;4.50;4.20;;;22.90;38.20;;;;;;5198758;28;20219;-54
2022/05/04 12:23:15;;;;;;;5.80;5.00;;;22.80;38.10;;;;;;5217576;28;20476;-57
2022/05/04 12:25:46;;;;;;;6.87;4.30;;;22.50;37.70;;;;;;5203538;28;20520;-54
2022/05/04 12:28:16;;;;;;;8.50;5.27;;;22.00;38.20;;;;;;5220296;28;20454;-57
2022/05/04 12:33:39;;;;;;;12.20;5.10;;;21.10;39.30;;;;;;5204821;28;20225;-56
2022/05/04 12:36:12;;;;;;;4.33;3.93;;;20.80;40.20;;;;;;5204648;28;20488;-52
2022/05/04 12:38:48;;;;;;;4.40;3.83;;;20.80;40.50;;;;;;5204982;28;20441;-50
2022/05/04 12:41:21;;;;;;;4.60;4.30;;;21.00;40.40;;;;;;5206390;28;20946;-51
2022/05/04 12:43:52;;;;;;;7.10;4.20;;;21.20;40.50;;;;;;5208474;28;20540;-52
2022/05/04 12:46:22;;;;;;;4.77;4.33;;;21.50;39.80;;;;;;5205330;28;20450;-50
2022/05/04 12:48:53;;;;;;;5.10;4.60;;;21.90;39.90;;;;;;5217725;28;20200;-51
2022/05/04 12:51:24;;;;;;;6.93;4.27;;;22.10;39.00;;;;;;5223262;28;20176;-50
2022/05/04 12:53:55;;;;;;;4.37;4.03;;;22.00;39.10;;;;;;5204609;28;20180;-50
2022/05/04 12:59:17;;;;;;;8.53;5.93;;;21.60;39.80;;;;;;5210236;28;20218;-52
2022/05/04 13:01:47;;;;;;;7.83;4.17;;;21.90;39.20;;;;;;5209784;28;20535;-49
2022/05/04 13:04:18;;;;;;;4.80;3.83;;;22.00;39.20;;;;;;5220690;28;20476;-51
2022/05/04 13:06:48;;;;;;;9.10;4.57;;;22.10;39.50;;;;;;5203702;28;20240;-52
2022/05/04 13:09:19;;;;;;;5.17;4.67;;;22.10;39.20;;;;;;5206555;28;20211;-49
2022/05/04 13:11:49;;;;;;;5.33;4.50;;;22.30;38.60;;;;;;5218273;28;20278;-54
2022/05/04 13:14:20;;;;;;;5.33;4.70;;;21.90;38.80;;;;;;5204657;28;20635;-51
2022/05/04 13:16:51;;;;;;;11.43;4.30;;;21.60;38.90;;;;;;5202690;28;20198;-55
2022/05/04 13:19:22;;;;;;;4.80;4.40;;;21.20;39.60;;;;;;5204889;28;20237;-49
2022/05/04 13:21:52;;;;;;;9.60;4.70;;;20.90;40.20;;;;;;5199172;28;20435;-49
2022/05/04 13:24:23;;;;;;;11.30;5.43;;;20.70;40.60;;;;;;5205271;28;20202;-50
2022/05/04 13:26:53;;;;;;;4.30;4.00;;;20.50;40.90;;;;;;5218850;28;20210;-50
2022/05/04 13:29:24;;;;;;;4.50;4.10;;;20.50;40.80;;;;;;5208312;28;20212;-50
2022/05/04 13:31:55;;;;;;;4.60;4.20;;;20.60;40.50;;;;;;5205549;28;20533;-50
2022/05/04 13:34:25;;;;;;;3.93;3.70;;;20.70;40.60;;;;;;5219656;28;20184;-51
2022/05/04 13:36:56;;;;;;;6.47;4.90;;;20.70;40.70;;;;;;5200787;28;20706;-49
2022/05/04 13:39:26;;;;;;;6.37;4.67;;;20.70;40.90;;;;;;5206953;28;20199;-50
2022/05/04 13:41:57;;;;;;;4.83;4.33;;;20.50;40.70;;;;;;5203002;28;20230;-52
2022/05/04 13:44:27;;;;;;;5.50;4.33;;;20.70;40.90;;;;;;5204484;28;20228;-50
2022/05/04 13:46:58;;;;;;;3.50;3.13;;;20.70;40.40;;;;;;5204870;28;20215;-50